Latest Weather Observations for Fitzroy Crossing

IDW60801

Issued at 6:53 am WST Wednesday 18 September 2019 (issued every 10 minutes, with the page automatically refreshed every 10 minutes)

About weather observations | Map of weather stations | Latest weather observations for WA | Other Formats
Station Details ID: 003093 Name: FITZROY CROSSING AERO Lat: -18.18 Lon: 125.56 Height: 114.5 m
Data from the previous 72 hours. | See also: Recent months at Fitzroy Crossing
Date/Time
WST
Temp
°C
App
Temp
°C
Dew
Point
°C
Rel
Hum
%
Delta-T
°C
Wind Press
QNH
hPa
Press
MSL
hPa
Rain since
9am
mm
Dir  Spd
km/h
Gust
km/h
Spd
kts
Gust
kts
18/06:30am 21.0 18.1 4.6 34 8.0 NNW 9 13 5 7 1016.7 1016.0 0.0
18/06:00am 19.7 16.7 4.2 36 7.5 N 9 11 5 6 1016.3 1015.6 0.0
18/05:30am 19.3 16.4 4.6 38 7.1 N 9 11 5 6 1015.9 1015.2 0.0
18/05:00am 19.5 15.8 2.4 32 7.9 NW 11 15 6 8 1015.6 1014.9 0.0
18/04:30am 20.8 17.1 4.4 34 8.0 W 13 15 7 8 1015.4 1014.7 0.0
18/04:00am 21.1 18.3 2.9 30 8.6 W 7 11 4 6 1015.4 1014.7 0.0
18/03:30am 21.4 17.7 2.2 28 9.0 NW 11 17 6 9 1015.2 1014.5 0.0
18/03:00am 23.1 19.7 4.1 29 9.4 N 11 13 6 7 1015.1 1014.4 0.0
18/02:30am 23.0 18.7 3.0 27 9.6 N 15 17 8 9 1014.7 1014.0 0.0
18/02:00am 21.9 18.5 -0.8 22 10.1 W 7 24 4 13 1014.5 1013.8 0.0
18/01:30am 23.0 18.9 -0.5 21 10.6 WSW 11 24 6 13 1014.3 1013.6 0.0
18/01:00am 22.3 18.3 0.2 23 10.0 SSW 11 13 6 7 1014.3 1013.6 0.0
18/12:30am 21.6 18.2 -0.4 23 9.8 WSW 7 9 4 5 1014.3 1013.6 0.0
18/12:00am 21.4 18.3 0.0 24 9.6 E 6 11 3 6 1014.8 1014.1 0.0
 
Date/Time
WST
Temp
°C
App
Temp
°C
Dew
Point
°C
Rel
Hum
%
Delta-T
°C
Wind Press
QNH
hPa
Press
MSL
hPa
Rain since
9am
mm
Dir  Spd
km/h
Gust
km/h
Spd
kts
Gust
kts
17/11:30pm 23.2 20.2 0.9 23 10.3 S 6 7 3 4 1014.9 1014.2 0.0
17/11:00pm 23.9 20.6 0.3 21 10.9 SW 7 9 4 5 1015.0 1014.3 0.0
17/10:30pm 24.6 20.6 0.2 20 11.3 SSW 11 13 6 7 1015.1 1014.4 0.0
17/10:00pm 25.2 22.0 0.7 20 11.5 SSW 7 9 4 5 1015.3 1014.6 0.0
17/09:30pm 25.9 22.3 0.5 19 11.9 S 9 11 5 6 1015.4 1014.7 0.0
17/09:00pm 28.5 25.2 0.3 16 13.4 S 7 9 4 5 1015.4 1014.7 0.0
17/08:30pm 26.6 22.3 1.1 19 12.2 SE 13 17 7 9 1015.3 1014.6 0.0
17/08:00pm 27.9 24.2 -0.2 16 13.2 SSE 9 13 5 7 1015.0 1014.3 0.0
17/07:30pm 29.8 26.4 -0.5 14 14.4 S 7 11 4 6 1014.6 1013.9 0.0
17/07:00pm 30.7 26.9 -0.8 13 15.0 SSW 9 9 5 5 1014.2 1013.5 0.0
17/06:30pm 30.7 27.8 -0.8 13 15.0 SSW 4 7 2 4 1014.0 1013.3 0.0
17/06:00pm 31.5 29.3 -1.3 12 15.6 CALM 0 0 0 0 1013.5 1012.9 0.0
17/05:30pm 33.6 31.3 -2.2 10 17.0 CALM 0 0 0 0 1013.2 1012.6 0.0
17/05:00pm 35.1 31.1 -2.5 9 17.9 E 9 15 5 8 1013.0 1012.4 0.0
17/04:30pm 36.0 32.6 -1.8 9 18.3 S 6 11 3 6 1012.7 1012.1 0.0
17/04:00pm 36.1 32.2 -1.7 9 18.4 SE 9 17 5 9 1012.7 1012.1 0.0
17/03:30pm 36.6 32.0 -1.4 9 18.6 ESE 13 20 7 11 1012.6 1012.0 0.0
17/03:00pm 36.8 32.6 -1.2 9 18.7 E 11 20 6 11 1012.5 1011.9 0.0
17/02:30pm 36.9 32.3 -1.1 9 18.8 ENE 13 24 7 13 1012.7 1012.1 0.0
17/02:00pm 36.7 32.8 -1.3 9 18.7 ENE 9 20 5 11 1013.1 1012.5 0.0
17/01:30pm 35.8 31.1 -2.0 9 18.3 NE 13 24 7 13 1013.6 1013.0 0.0
17/01:00pm 37.0 32.8 -1.1 9 18.8 N 11 22 6 12 1014.0 1013.3 0.0
17/12:30pm 36.3 32.4 1.2 11 17.9 WNW 11 19 6 10 1014.4 1013.7 0.0
17/12:00pm 35.7 31.2 1.9 12 17.4 N 15 26 8 14 1015.0 1014.3 0.0
17/11:30am 35.1 31.6 7.2 18 15.5 NW 15 24 8 13 1015.5 1014.8 0.0
17/11:00am 34.0 30.7 7.9 20 14.6 NW 15 28 8 15 1016.0 1015.3 0.0
17/10:30am 33.5 30.6 8.2 21 14.2 NW 13 20 7 11 1016.4 1015.7 0.0
17/10:00am 32.1 29.6 8.4 23 13.2 N 11 20 6 11 1016.8 1016.1 0.0
17/09:30am 31.2 28.8 10.0 27 12.1 NNW 13 20 7 11 1017.0 1016.3 0.0
17/09:00am 30.6 27.6 10.5 29 11.5 NNW 17 24 9 13 1017.2 1016.5 0.0
17/08:30am 28.7 26.3 12.6 37 9.5 NNW 17 22 9 12 1017.2 1016.5 0.0
17/08:00am 27.7 25.2 14.0 43 8.2 NW 20 24 11 13 1017.2 1016.5 0.0
17/07:30am 25.4 24.0 14.5 51 6.5 NNW 15 24 8 13 1017.0 1016.3 0.0
17/07:00am 23.1 22.9 13.6 55 5.5 NNE 7 9 4 5 1016.6 1015.9 0.0
17/06:30am 20.9 21.2 12.3 58 4.9 SSE 2 6 1 3 1016.2 1015.5 0.0
17/06:00am 19.8 18.9 12.6 63 4.1 SSE 9 15 5 8 1016.1 1015.4 0.0
17/05:30am 19.6 17.6 11.4 59 4.5 NNW 13 13 7 7 1015.2 1014.5 0.0
17/05:00am 18.6 16.3 9.1 54 5.0 NW 11 15 6 8 1014.9 1014.2 0.0
17/04:30am 18.6 14.9 6.4 45 6.1 NNW 15 17 8 9 1014.5 1013.8 0.0
17/04:00am 19.1 15.6 5.6 41 6.7 NNW 13 15 7 8 1014.1 1013.4 0.0
17/03:30am 19.5 16.4 3.6 35 7.6 NW 9 11 5 6 1013.7 1013.1 0.0
17/03:00am 20.1 16.3 2.0 30 8.4 NW 11 13 6 7 1013.6 1013.0 0.0
17/02:30am 19.9 15.4 -0.1 26 8.9 NW 13 17 7 9 1013.6 1013.0 0.0
17/02:00am 18.7 12.4 -6.1 18 9.6 NNW 19 24 10 13 1013.7 1013.1 0.0
17/01:30am 19.2 15.9 -4.3 20 9.5 W 4 11 2 6 1013.3 1012.7 0.0
17/01:00am 19.4 14.3 -4.8 19 9.7 E 13 22 7 12 1013.3 1012.7 0.0
17/12:30am 18.5 14.5 -5.5 19 9.4 NNE 7 22 4 12 1013.4 1012.8 0.0
17/12:00am 20.7 18.2 -3.7 19 10.1 CALM 0 0 0 0 1013.3 1012.7 0.0
 
Date/Time
WST
Temp
°C
App
Temp
°C
Dew
Point
°C
Rel
Hum
%
Delta-T
°C
Wind Press
QNH
hPa
Press
MSL
hPa
Rain since
9am
mm
Dir  Spd
km/h
Gust
km/h
Spd
kts
Gust
kts
16/11:30pm 21.2 17.0 -4.0 18 10.4 E 9 11 5 6 1013.6 1013.0 0.0
16/11:00pm 21.2 16.5 -4.8 17 10.6 ENE 11 13 6 7 1013.7 1013.1 0.0
16/10:30pm 23.5 19.6 -4.6 15 11.8 SSW 7 7 4 4 1013.9 1013.2 0.0
16/10:00pm 24.5 20.7 -5.7 13 12.5 SSW 6 7 3 4 1014.0 1013.3 0.0
16/09:30pm 26.0 21.6 -5.6 12 13.3 SW 9 11 5 6 1014.1 1013.4 0.0
16/09:00pm 26.1 22.1 -5.5 12 13.3 SW 7 7 4 4 1014.1 1013.4 0.0
16/08:30pm 27.3 22.4 -6.9 10 14.2 SW 11 13 6 7 1014.0 1013.3 0.0
16/08:00pm 27.6 22.7 -6.7 10 14.3 WSW 11 13 6 7 1013.9 1013.2 0.0
16/07:30pm 27.3 22.8 -6.9 10 14.2 WSW 9 11 5 6 1013.4 1012.8 0.0
16/07:00pm 28.5 23.7 -6.0 10 14.7 SW 11 13 6 7 1013.1 1012.5 0.0
16/06:30pm 28.9 24.4 -7.1 9 15.1 WSW 9 11 5 6 1012.9 1012.3 0.0
16/06:00pm 31.1 27.2 -7.0 8 16.3 W 6 9 3 5 1012.5 1011.9 0.0
16/05:30pm 33.4 29.3 -7.0 7 17.7 NW 7 7 4 4 1012.3 1011.6 0.0
16/05:00pm 34.8 31.1 -8.0 6 18.6 N 4 7 2 4 1012.3 1011.6 0.0
16/04:30pm 35.6 32.4 -7.5 6 19.0 WSW 2 7 1 4 1012.1 1011.4 0.0
16/04:00pm 35.7 31.1 -7.4 6 19.1 E 9 17 5 9 1012.1 1011.4 0.0
16/03:30pm 36.2 32.1 -7.0 6 19.3 ESE 7 15 4 8 1012.0 1011.3 0.0
16/03:00pm 36.3 32.2 -7.0 6 19.4 SW 7 15 4 8 1012.1 1011.4 0.0
16/02:30pm 36.1 31.6 -7.1 6 19.3 ESE 9 24 5 13 1012.4 1011.8 0.0
16/02:00pm 36.3 30.6 -7.0 6 19.4 NNE 15 28 8 15 1012.7 1012.1 0.0
16/01:30pm 36.0 30.5 -5.2 7 18.9 NE 15 28 8 15 1013.0 1012.4 0.0
16/01:00pm 35.2 30.4 -5.7 7 18.5 E 11 20 6 11 1013.4 1012.8 0.0
16/12:30pm 36.2 31.3 -3.3 8 18.7 ENE 13 24 7 13 1014.0 1013.3 0.0
16/12:00pm 35.8 30.7 -5.3 7 18.8 ENE 13 26 7 14 1014.4 1013.7 0.0
16/11:30am 34.3 29.1 -3.1 9 17.6 ENE 15 26 8 14 1014.9 1014.2 0.0
16/11:00am 35.0 30.4 -1.1 10 17.6 NE 13 24 7 13 1015.5 1014.8 0.0
16/10:30am 33.7 29.9 -0.8 11 16.8 E 9 20 5 11 1015.9 1015.2 0.0
16/10:00am 32.2 29.4 3.2 16 14.9 N 7 15 4 8 1016.4 1015.7 0.0
16/09:30am 31.8 30.4 5.3 19 14.1 E 2 7 1 4 1016.8 1016.1 0.0
16/09:00am 29.8 27.7 5.8 22 12.7 NNW 6 9 3 5 1017.1 1016.4 0.0
16/08:30am 28.6 26.5 6.7 25 11.7 NW 7 13 4 7 1017.2 1016.5 0.0
16/08:00am 26.5 25.5 7.5 30 10.1 SSE 2 7 1 4 1017.4 1016.7 0.0
16/07:30am 24.4 22.6 7.1 33 9.1 ESE 6 9 3 5 1017.2 1016.5 0.0
16/07:00am 22.4 21.3 4.9 32 8.7 CALM 0 0 0 0 1016.9 1016.2 0.0
16/06:30am 20.5 18.7 1.4 28 8.8 CALM 0 0 0 0 1016.6 1015.9 0.0
16/06:00am 19.4 17.1 5.8 41 6.7 N 7 7 4 4 1016.1 1015.4 0.0
16/05:30am 18.2 15.2 0.8 31 7.7 N 6 9 3 5 1015.7 1015.0 0.0
16/05:00am 17.3 13.8 -1.4 28 7.9 N 7 9 4 5 1015.6 1014.9 0.0
16/04:30am 17.5 12.9 -3.8 23 8.5 NNW 11 11 6 6 1015.4 1014.7 0.0
16/04:00am 18.0 13.6 -5.9 19 9.2 N 9 11 5 6 1015.3 1014.6 0.0
16/03:30am 19.6 15.9 -3.3 21 9.5 NE 7 9 4 5 1014.8 1014.1 0.0
16/03:00am 21.6 17.2 -2.3 20 10.3 ENE 11 13 6 7 1014.6 1013.9 0.0
16/02:30am 19.8 16.1 -4.5 19 9.8 N 6 7 3 4 1014.2 1013.5 0.0
16/02:00am 22.9 18.3 -4.2 16 11.4 NE 11 15 6 8 1014.2 1013.5 0.0
16/01:30am 22.0 17.0 -4.1 17 10.9 ESE 13 15 7 8 1014.0 1013.3 0.0
16/01:00am 21.2 16.2 -4.0 18 10.4 ESE 13 15 7 8 1013.9 1013.2 0.0
16/12:30am 21.6 17.5 -3.0 19 10.4 ESE 9 13 5 7 1014.1 1013.4 0.0
16/12:00am 21.2 18.5 -5.6 16 10.8 CALM 0 0 0 0 1014.1 1013.4 0.0
 
Date/Time
WST
Temp
°C
App
Temp
°C
Dew
Point
°C
Rel
Hum
%
Delta-T
°C
Wind Press
QNH
hPa
Press
MSL
hPa
Rain since
9am
mm
Dir  Spd
km/h
Gust
km/h
Spd
kts
Gust
kts
15/11:30pm 22.0 19.3 -5.8 15 11.2 CALM 0 0 0 0 1014.2 1013.5 0.0
15/11:00pm 21.8 18.8 -5.1 16 11.0 NE 2 6 1 3 1014.3 1013.6 0.0
15/10:30pm 22.6 18.7 -4.5 16 11.3 NE 7 11 4 6 1014.4 1013.7 0.0
15/10:00pm 24.4 19.7 -4.8 14 12.3 E 11 13 6 7 1014.5 1013.8 0.0
15/09:30pm 25.1 20.8 -5.2 13 12.7 E 9 11 5 6 1014.6 1013.9 0.0
15/09:00pm 25.5 20.7 -6.0 12 13.1 E 11 13 6 7 1014.7 1014.0 0.0
15/08:30pm 26.5 22.1 -6.3 11 13.7 E 9 11 5 6 1014.7 1014.0 0.0
15/08:00pm 26.4 21.6 -6.4 11 13.6 ESE 11 11 6 6 1014.5 1013.8 0.0
15/07:30pm 27.6 23.1 -6.7 10 14.3 ESE 9 11 5 6 1014.3 1013.6 0.0
15/07:00pm 28.9 24.4 -7.1 9 15.1 ESE 9 11 5 6 1013.9 1013.2 0.0
15/06:30pm 29.5 25.0 -6.7 9 15.4 SE 9 13 5 7 1013.5 1012.9 0.0
15/06:00pm 30.7 26.5 -7.3 8 16.2 E 7 9 4 5 1013.2 1012.6 0.0
15/05:30pm 32.9 28.3 -7.4 7 17.4 E 9 13 5 7 1012.8 1012.2 0.0
15/05:00pm 35.1 29.8 -7.8 6 18.8 E 13 17 7 9 1012.8 1012.2 0.0
15/04:30pm 36.0 31.3 -9.5 5 19.5 E 9 15 5 8 1012.6 1012.0 0.0
15/04:00pm 36.4 30.2 -9.2 5 19.7 ENE 17 22 9 12 1012.7 1012.1 0.0
15/03:30pm 36.4 31.3 -9.2 5 19.7 NE 11 19 6 10 1012.7 1012.1 0.0
15/03:00pm 36.9 30.9 -6.5 6 19.7 NNE 17 28 9 15 1012.7 1012.1 0.0
15/02:30pm 36.8 29.6 -9.0 5 19.9 ENE 22 32 12 17 1012.9 1012.3 0.0
15/02:00pm 37.3 31.1 -8.6 5 20.2 ENE 17 30 9 16 1013.0 1012.4 0.0
15/01:30pm 36.6 30.2 -6.8 6 19.5 ENE 19 33 10 18 1013.2 1012.6 0.0
15/01:00pm 37.3 29.6 -6.3 6 19.9 ENE 26 35 14 19 1013.7 1013.1 0.0
15/12:30pm 37.2 31.2 -6.3 6 19.8 ENE 17 30 9 16 1014.2 1013.5 0.0
15/12:00pm 35.9 28.5 -7.2 6 19.2 NE 24 43 13 23 1014.8 1014.1 0.0
15/11:30am 35.4 26.8 -7.6 6 18.9 ENE 30 41 16 22 1015.3 1014.6 0.0
15/11:00am 35.6 28.9 -7.5 6 19.0 ENE 20 35 11 19 1015.6 1014.9 0.0
15/10:30am 34.5 28.0 -6.3 7 18.2 ENE 20 37 11 20 1016.3 1015.6 0.0
15/10:00am 33.8 27.0 -5.0 8 17.6 E 22 33 12 18 1016.9 1016.2 0.0
15/09:30am 33.0 28.6 -2.6 10 16.7 E 11 22 6 12 1017.3 1016.6 0.0
15/09:00am 31.1 27.3 -0.5 13 15.1 ENE 9 15 5 8 1017.6 1016.9 0.0
15/08:30am 30.1 27.4 0.6 15 14.3 NE 4 13 2 7 1017.9 1017.2 0.0
15/08:00am 27.8 26.1 4.2 22 12.0 NE 2 7 1 4 1018.0 1017.3 0.0
15/07:30am 26.1 24.4 4.0 24 11.1 NNE 2 6 1 3 1018.0 1017.3 0.0
15/07:00am 23.3 20.4 1.6 24 10.2 ENE 6 7 3 4 1017.8 1017.1 0.0

Other formats

Comma delimited format used in spreadsheet applications
http://www.bom.gov.au/fwo/IDW60801/IDW60801.94206.axf

JavaScript Object Notation format (JSON) in row-major order
http://www.bom.gov.au/fwo/IDW60801/IDW60801.94206.json

Data quality

Most of these data are generated automatically and are frequently updated. Quality checks on data are not normally performed. It is possible for incorrect values to appear. Refer to information at About Latest Weather Observations and please check the disclaimer before using these data.